createdAt,value
2019-01-12T00:00:52.798Z,14.70
2019-01-12T00:01:52.775Z,14.70
2019-01-12T00:02:52.763Z,14.80
2019-01-12T00:03:52.752Z,15.70
2019-01-12T00:04:52.766Z,15.20
2019-01-12T00:05:52.729Z,16.40
2019-01-12T00:06:52.720Z,16.50
2019-01-12T00:07:52.708Z,14.50
2019-01-12T00:08:52.699Z,15.20
2019-01-12T00:09:52.710Z,15.40
2019-01-12T00:10:52.673Z,15.60
2019-01-12T00:11:52.665Z,16.10
2019-01-12T00:12:52.651Z,15.60
2019-01-12T00:13:52.642Z,15.70
2019-01-12T00:14:52.659Z,15.40
2019-01-12T00:15:52.621Z,14.60
2019-01-12T00:16:52.608Z,14.90
2019-01-12T00:17:52.597Z,14.50
2019-01-12T00:18:52.585Z,14.30
2019-01-12T00:19:52.598Z,13.50
2019-01-12T00:20:52.563Z,14.30
2019-01-12T00:21:52.550Z,14.40
2019-01-12T00:22:52.539Z,14.70
2019-01-12T00:23:52.530Z,14.70
2019-01-12T00:24:52.540Z,15.50
2019-01-12T00:25:52.508Z,15.90
2019-01-12T00:26:52.495Z,15.00
2019-01-12T00:27:52.483Z,16.20
2019-01-12T00:28:52.473Z,16.10
2019-01-12T00:29:52.485Z,15.80
2019-01-12T00:30:52.449Z,15.70
2019-01-12T00:31:52.440Z,15.30
2019-01-12T00:32:52.428Z,15.10
2019-01-12T00:33:52.417Z,15.80
2019-01-12T00:34:52.428Z,14.60
2019-01-12T00:35:52.396Z,14.70
2019-01-12T00:36:52.383Z,14.80
2019-01-12T00:37:52.370Z,14.60
2019-01-12T00:38:52.361Z,14.20
2019-01-12T00:39:52.350Z,14.70
2019-01-12T00:40:52.362Z,14.20
2019-01-12T00:41:52.330Z,13.90
2019-01-12T00:42:52.315Z,13.80
2019-01-12T00:43:52.304Z,13.30
2019-01-12T00:44:52.296Z,13.50
2019-01-12T00:45:52.322Z,12.50
2019-01-12T00:46:52.270Z,12.10
2019-01-12T00:47:52.259Z,11.10
2019-01-12T00:48:52.249Z,11.50
2019-01-12T00:49:52.236Z,11.60
2019-01-12T00:50:52.251Z,10.80
2019-01-12T00:51:52.218Z,10.40
2019-01-12T00:52:52.202Z,10.10
2019-01-12T00:53:52.192Z,9.40
2019-01-12T00:54:52.182Z,10.20
2019-01-12T00:55:52.194Z,9.40
2019-01-12T00:56:52.162Z,9.30
2019-01-12T00:57:52.153Z,8.40
2019-01-12T00:58:52.135Z,9.00
2019-01-12T00:59:52.123Z,8.40
2019-01-12T01:00:52.137Z,9.10
2019-01-12T01:01:52.102Z,8.90
2019-01-12T01:02:52.092Z,9.50
2019-01-12T01:03:52.079Z,8.70
2019-01-12T01:04:52.069Z,9.00
2019-01-12T01:05:52.079Z,8.60
2019-01-12T01:06:52.046Z,8.30
2019-01-12T01:07:52.040Z,8.80
2019-01-12T01:08:52.023Z,8.90
2019-01-12T01:09:52.013Z,8.10
2019-01-12T01:10:52.026Z,8.60
2019-01-12T01:11:51.992Z,8.10
2019-01-12T01:12:51.981Z,7.50
2019-01-12T01:13:51.967Z,7.10
2019-01-12T01:14:51.956Z,7.90
2019-01-12T01:15:51.970Z,7.40
2019-01-12T01:16:51.934Z,7.20
2019-01-12T01:17:51.924Z,7.30
2019-01-12T01:18:51.911Z,6.50
2019-01-12T01:19:51.900Z,6.60
2019-01-12T01:20:51.917Z,7.10
2019-01-12T01:21:51.897Z,6.80
2019-01-12T01:22:51.867Z,7.20
2019-01-12T01:23:51.856Z,6.60
2019-01-12T01:24:51.845Z,6.40
2019-01-12T01:25:51.836Z,7.10
2019-01-12T01:26:51.845Z,7.30
2019-01-12T01:27:51.810Z,6.80
2019-01-12T01:28:51.803Z,7.00
2019-01-12T01:29:51.788Z,7.40
2019-01-12T01:30:51.777Z,7.30
2019-01-12T01:31:51.790Z,7.20
2019-01-12T01:32:51.755Z,7.20
2019-01-12T01:33:51.743Z,7.80
2019-01-12T01:34:51.731Z,7.10
2019-01-12T01:35:51.722Z,6.90
2019-01-12T01:36:51.733Z,7.30
2019-01-12T01:37:51.704Z,7.40
2019-01-12T01:38:51.687Z,7.30
2019-01-12T01:39:51.675Z,7.90
2019-01-12T01:40:51.664Z,7.30
2019-01-12T01:41:51.677Z,7.50
2019-01-12T01:42:51.643Z,7.50
2019-01-12T01:43:51.634Z,7.60
2019-01-12T01:44:51.621Z,7.80
2019-01-12T01:45:51.607Z,7.20
2019-01-12T01:46:51.623Z,7.60
2019-01-12T01:47:51.587Z,8.20
2019-01-12T01:48:51.576Z,8.10
2019-01-12T01:49:51.564Z,7.80
2019-01-12T01:50:51.551Z,7.60
2019-01-12T01:51:51.566Z,8.10
2019-01-12T01:52:51.530Z,8.20
2019-01-12T01:53:51.519Z,7.30
2019-01-12T01:54:52.974Z,8.50
2019-01-12T01:55:51.498Z,8.20
2019-01-12T01:56:51.510Z,8.10
2019-01-12T01:57:51.474Z,7.80
2019-01-12T01:58:51.463Z,7.70
2019-01-12T01:59:51.451Z,7.80
2019-01-12T02:00:51.441Z,7.50
2019-01-12T02:01:51.454Z,8.30
2019-01-12T02:02:51.417Z,8.20
2019-01-12T02:03:51.406Z,8.30
2019-01-12T02:04:51.395Z,8.00
2019-01-12T02:05:51.384Z,7.90
2019-01-12T02:06:51.398Z,8.00
2019-01-12T02:07:51.360Z,8.20
2019-01-12T02:08:51.350Z,8.30
2019-01-12T02:09:51.339Z,8.90
2019-01-12T02:10:51.327Z,8.80
2019-01-12T02:11:51.343Z,8.60
2019-01-12T02:12:51.305Z,8.80
2019-01-12T02:13:51.294Z,8.80
2019-01-12T02:14:51.284Z,8.80
2019-01-12T02:15:51.273Z,9.10
2019-01-12T02:16:51.285Z,8.50
2019-01-12T02:17:51.249Z,8.00
2019-01-12T02:18:51.238Z,8.60
2019-01-12T02:19:51.226Z,8.40
2019-01-12T02:20:51.215Z,8.20
2019-01-12T02:21:51.227Z,8.80
2019-01-12T02:22:51.194Z,8.40
2019-01-12T02:23:51.183Z,8.20
2019-01-12T02:24:51.173Z,8.50
2019-01-12T02:25:51.159Z,8.20
2019-01-12T02:26:51.149Z,8.00
2019-01-12T02:27:51.166Z,8.50
2019-01-12T02:28:51.124Z,7.80
2019-01-12T02:29:51.114Z,8.00
2019-01-12T02:30:51.104Z,8.30
2019-01-12T02:31:51.096Z,8.00
2019-01-12T02:32:51.107Z,8.80
2019-01-12T02:33:51.070Z,8.40
2019-01-12T02:34:51.059Z,8.50
2019-01-12T02:35:51.047Z,8.40
2019-01-12T02:36:51.040Z,8.40
2019-01-12T02:37:51.049Z,7.90
2019-01-12T02:38:51.021Z,8.50
2019-01-12T02:39:51.063Z,8.30
2019-01-12T02:40:50.991Z,8.10
2019-01-12T02:41:50.982Z,7.90
2019-01-12T02:42:50.994Z,8.40
2019-01-12T02:43:50.961Z,9.30
2019-01-12T02:44:50.948Z,8.50
2019-01-12T02:45:50.934Z,8.80
2019-01-12T02:46:50.926Z,8.90
2019-01-12T02:47:50.937Z,8.80
2019-01-12T02:48:50.905Z,8.90
2019-01-12T02:49:50.890Z,8.90
2019-01-12T02:50:50.881Z,9.60
2019-01-12T02:51:50.868Z,9.40
2019-01-12T02:52:50.880Z,9.60
2019-01-12T02:53:50.847Z,9.70
2019-01-12T02:54:50.836Z,10.20
2019-01-12T02:55:50.822Z,10.00
2019-01-12T02:56:50.812Z,10.10
2019-01-12T02:57:50.825Z,9.70
2019-01-12T02:58:50.789Z,10.40
2019-01-12T02:59:50.778Z,10.10
2019-01-12T03:00:50.766Z,10.30
2019-01-12T03:01:50.762Z,10.00
2019-01-12T03:02:50.768Z,9.70
2019-01-12T03:03:50.731Z,10.50
2019-01-12T03:04:50.721Z,10.10
2019-01-12T03:05:50.717Z,9.80
2019-01-12T03:06:50.698Z,10.30
2019-01-12T03:07:50.710Z,10.30
2019-01-12T03:08:50.678Z,9.90
2019-01-12T03:09:50.665Z,10.00
2019-01-12T03:10:50.656Z,10.60
2019-01-12T03:11:50.642Z,10.00
2019-01-12T03:12:50.661Z,11.10
2019-01-12T03:13:50.619Z,11.00
2019-01-12T03:14:50.618Z,10.90
2019-01-12T03:15:50.601Z,10.90
2019-01-12T03:16:50.589Z,11.30
2019-01-12T03:17:50.578Z,12.10
2019-01-12T03:18:50.589Z,11.80
2019-01-12T03:19:50.554Z,12.00
2019-01-12T03:20:50.541Z,12.20
2019-01-12T03:21:50.530Z,12.00
2019-01-12T03:22:50.522Z,12.60
2019-01-12T03:23:50.531Z,12.60
2019-01-12T03:24:50.495Z,12.50
2019-01-12T03:25:50.485Z,12.40
2019-01-12T03:26:50.475Z,11.90
2019-01-12T03:27:50.468Z,13.50
2019-01-12T03:28:50.476Z,13.60
2019-01-12T03:29:50.442Z,13.10
2019-01-12T03:30:50.434Z,13.60
2019-01-12T03:31:50.419Z,12.40
2019-01-12T03:32:50.526Z,13.20
2019-01-12T03:33:50.418Z,13.30
2019-01-12T03:34:50.383Z,13.10
2019-01-12T03:35:50.373Z,12.60
2019-01-12T03:36:50.363Z,12.50
2019-01-12T03:37:50.381Z,13.20
2019-01-12T03:38:50.366Z,11.90
2019-01-12T03:39:50.328Z,12.60
2019-01-12T03:40:50.316Z,12.70
2019-01-12T03:41:50.309Z,12.70
2019-01-12T03:42:50.300Z,12.10
2019-01-12T03:43:50.305Z,12.90
2019-01-12T03:44:50.272Z,13.00
2019-01-12T03:45:50.260Z,12.20
2019-01-12T03:46:50.248Z,12.60
2019-01-12T03:47:50.239Z,12.30
2019-01-12T03:48:50.251Z,12.10
2019-01-12T03:49:50.217Z,12.70
2019-01-12T03:50:50.218Z,11.90
2019-01-12T03:51:50.192Z,12.60
2019-01-12T03:52:50.183Z,12.20
2019-01-12T03:53:50.196Z,11.30
2019-01-12T03:54:50.158Z,11.90
2019-01-12T03:55:50.148Z,11.80
2019-01-12T03:56:50.135Z,11.70
2019-01-12T03:57:50.124Z,11.90
2019-01-12T03:58:50.140Z,11.70
2019-01-12T03:59:50.102Z,11.20
2019-01-12T04:00:50.129Z,11.40
2019-01-12T04:01:50.081Z,11.40
2019-01-12T04:02:50.069Z,12.20
2019-01-12T04:03:50.084Z,12.20
2019-01-12T04:04:50.045Z,11.60
2019-01-12T04:05:50.034Z,12.00
2019-01-12T04:06:50.023Z,11.60
2019-01-12T04:07:50.011Z,11.60
2019-01-12T04:08:50.025Z,11.50
2019-01-12T04:09:49.992Z,11.50
2019-01-12T04:10:49.977Z,12.00
2019-01-12T04:11:49.969Z,11.40
2019-01-12T04:12:49.955Z,11.10
2019-01-12T04:13:49.947Z,10.40
2019-01-12T04:14:49.957Z,10.90
2019-01-12T04:15:49.924Z,11.80
2019-01-12T04:16:49.911Z,11.70
2019-01-12T04:17:49.900Z,10.90
2019-01-12T04:18:49.891Z,11.30
2019-01-12T04:19:49.900Z,11.30
2019-01-12T04:20:49.873Z,11.60
2019-01-12T04:21:49.855Z,11.20
2019-01-12T04:22:49.844Z,11.20
2019-01-12T04:23:49.831Z,11.40
2019-01-12T04:24:49.845Z,11.00
2019-01-12T04:25:49.811Z,10.80
2019-01-12T04:26:49.799Z,11.50
2019-01-12T04:27:49.788Z,11.90
2019-01-12T04:28:49.778Z,11.40
2019-01-12T04:29:49.790Z,12.20
2019-01-12T04:30:49.756Z,11.60
2019-01-12T04:31:49.745Z,11.80
2019-01-12T04:32:49.734Z,11.70
2019-01-12T04:33:49.720Z,11.70
2019-01-12T04:34:49.739Z,11.90
2019-01-12T04:35:49.705Z,11.30
2019-01-12T04:36:49.686Z,11.80
2019-01-12T04:37:49.678Z,12.70
2019-01-12T04:38:49.692Z,12.50
2019-01-12T04:39:49.678Z,11.90
2019-01-12T04:40:49.640Z,11.80
2019-01-12T04:41:49.631Z,12.20
2019-01-12T04:42:49.620Z,12.40
2019-01-12T04:43:49.608Z,11.20
2019-01-12T04:44:49.622Z,12.10
2019-01-12T04:45:49.585Z,12.10
2019-01-12T04:46:49.576Z,12.10
2019-01-12T04:47:49.563Z,12.60
2019-01-12T04:48:49.553Z,13.40
2019-01-12T04:49:49.566Z,13.90
2019-01-12T04:50:49.530Z,12.90
2019-01-12T04:51:49.582Z,12.20
2019-01-12T04:52:49.519Z,12.60
2019-01-12T04:53:49.497Z,13.10
2019-01-12T04:54:49.508Z,13.10
2019-01-12T04:55:49.475Z,13.30
2019-01-12T04:56:49.462Z,13.70
2019-01-12T04:57:49.460Z,13.90
2019-01-12T04:58:49.441Z,13.10
2019-01-12T04:59:49.453Z,13.40
2019-01-12T05:00:49.422Z,13.00
2019-01-12T05:01:49.406Z,13.20
2019-01-12T05:02:49.397Z,13.10
2019-01-12T05:03:49.384Z,13.00
2019-01-12T05:04:49.379Z,12.50
2019-01-12T05:05:49.385Z,13.20
2019-01-12T05:06:49.370Z,12.30
2019-01-12T05:07:49.341Z,12.30
2019-01-12T05:08:49.345Z,11.90
2019-01-12T05:09:49.318Z,13.10
2019-01-12T05:10:49.360Z,11.70
2019-01-12T05:11:49.294Z,12.40
2019-01-12T05:12:49.302Z,12.20
2019-01-12T05:13:49.270Z,12.00
2019-01-12T05:14:49.263Z,12.40
2019-01-12T05:15:49.273Z,11.60
2019-01-12T05:16:49.238Z,11.70
2019-01-12T05:17:49.226Z,12.20
2019-01-12T05:18:49.215Z,11.70
2019-01-12T05:19:49.203Z,12.60
2019-01-12T05:20:49.272Z,11.30
2019-01-12T05:21:49.186Z,11.30
2019-01-12T05:22:49.173Z,10.80
2019-01-12T05:23:49.159Z,10.70
2019-01-12T05:24:49.148Z,10.70
2019-01-12T05:25:49.495Z,10.90
2019-01-12T05:26:49.173Z,10.60
2019-01-12T05:27:49.115Z,10.70
2019-01-12T05:28:49.107Z,10.30
2019-01-12T05:29:49.094Z,10.10
2019-01-12T05:30:49.104Z,10.50
2019-01-12T05:31:49.068Z,10.00
2019-01-12T05:32:49.059Z,9.70
2019-01-12T05:33:49.045Z,9.00
2019-01-12T05:34:49.036Z,9.30
2019-01-12T05:35:49.049Z,9.50
2019-01-12T05:36:49.014Z,9.20
2019-01-12T05:37:49.004Z,9.20
2019-01-12T05:38:48.990Z,9.20
2019-01-12T05:39:48.984Z,9.20
2019-01-12T05:40:49.007Z,8.70
2019-01-12T05:41:48.957Z,9.20
2019-01-12T05:42:48.944Z,9.20
2019-01-12T05:43:48.933Z,9.20
2019-01-12T05:44:48.922Z,9.10
2019-01-12T05:45:48.938Z,9.10
2019-01-12T05:46:48.901Z,8.20
2019-01-12T05:47:48.889Z,8.50
2019-01-12T05:48:48.880Z,9.90
2019-01-12T05:49:48.866Z,9.50
2019-01-12T05:50:48.879Z,9.00
2019-01-12T05:51:48.844Z,9.70
2019-01-12T05:52:48.832Z,9.00
2019-01-12T05:53:48.822Z,9.40
2019-01-12T05:54:48.811Z,9.60
2019-01-12T05:55:56.606Z,9.70
2019-01-12T05:56:49.788Z,9.70
2019-01-12T05:57:48.778Z,10.10
2019-01-12T05:58:48.767Z,10.80
2019-01-12T05:59:48.755Z,10.40
2019-01-12T06:00:48.768Z,9.70
2019-01-12T06:01:48.736Z,10.70
2019-01-12T06:02:48.721Z,10.80
2019-01-12T06:03:48.709Z,11.30
2019-01-12T06:04:48.697Z,11.50
2019-01-12T06:05:48.690Z,10.20
2019-01-12T06:06:48.700Z,10.60
2019-01-12T06:07:48.664Z,10.90
2019-01-12T06:08:48.653Z,11.10
2019-01-12T06:09:48.643Z,11.20
2019-01-12T06:10:48.631Z,10.90
2019-01-12T06:11:48.644Z,11.30
2019-01-12T06:12:48.608Z,11.10
2019-01-12T06:13:48.598Z,11.10
2019-01-12T06:14:48.590Z,10.60
2019-01-12T06:15:48.575Z,10.60
2019-01-12T06:16:48.589Z,11.10
2019-01-12T06:17:48.555Z,10.80
2019-01-12T06:18:48.543Z,10.80
2019-01-12T06:19:48.534Z,11.10
2019-01-12T06:20:48.519Z,11.00
2019-01-12T06:21:48.537Z,10.90
2019-01-12T06:22:48.495Z,11.00
2019-01-12T06:23:48.487Z,10.60
2019-01-12T06:24:48.474Z,9.60
2019-01-12T06:25:48.464Z,10.50
2019-01-12T06:26:48.475Z,10.60
2019-01-12T06:27:48.439Z,9.90
2019-01-12T06:28:48.430Z,9.50
2019-01-12T06:29:48.421Z,10.00
2019-01-12T06:30:48.407Z,9.10
2019-01-12T06:31:48.420Z,9.60
2019-01-12T06:32:48.385Z,8.90
2019-01-12T06:33:48.374Z,9.50
2019-01-12T06:34:48.362Z,9.80
2019-01-12T06:35:48.352Z,9.20
2019-01-12T06:36:48.372Z,9.30
2019-01-12T06:37:48.331Z,8.80
2019-01-12T06:38:48.318Z,9.40
2019-01-12T06:39:48.305Z,9.30
2019-01-12T06:40:48.294Z,9.20
2019-01-12T06:41:48.308Z,9.00
2019-01-12T06:42:48.275Z,8.90
2019-01-12T06:43:48.261Z,9.10
2019-01-12T06:44:48.250Z,9.20
2019-01-12T06:45:48.239Z,8.60
2019-01-12T06:46:48.253Z,9.20
2019-01-12T06:47:48.219Z,9.00
2019-01-12T06:48:48.206Z,8.80
2019-01-12T06:49:48.193Z,8.50
2019-01-12T06:50:48.184Z,8.70
2019-01-12T06:51:48.197Z,7.90
2019-01-12T06:52:48.163Z,8.70
2019-01-12T06:53:48.150Z,7.70
2019-01-12T06:54:48.138Z,7.80
2019-01-12T06:55:48.129Z,8.00
2019-01-12T06:56:48.318Z,7.70
2019-01-12T06:57:48.110Z,7.50
2019-01-12T06:58:48.098Z,7.10
2019-01-12T06:59:48.086Z,7.80
2019-01-12T07:00:48.072Z,7.80
2019-01-12T07:01:48.060Z,7.30
2019-01-12T07:02:48.073Z,7.40
2019-01-12T07:03:48.038Z,7.30
2019-01-12T07:04:48.026Z,6.50
2019-01-12T07:05:48.016Z,7.00
2019-01-12T07:06:48.004Z,6.70
2019-01-12T07:07:48.017Z,6.40
2019-01-12T07:08:47.985Z,6.30
2019-01-12T07:09:47.971Z,6.20
2019-01-12T07:10:47.969Z,6.90
2019-01-12T07:11:47.950Z,6.60
2019-01-12T07:12:47.962Z,6.00
2019-01-12T07:13:47.926Z,5.50
2019-01-12T07:14:47.914Z,6.00
2019-01-12T07:15:47.904Z,5.80
2019-01-12T07:16:47.892Z,5.20
2019-01-12T07:17:47.908Z,5.60
2019-01-12T07:18:47.870Z,5.30
2019-01-12T07:19:47.860Z,4.80
2019-01-12T07:20:47.846Z,5.30
2019-01-12T07:21:47.837Z,5.40
2019-01-12T07:22:47.848Z,5.10
2019-01-12T07:23:47.814Z,5.20
2019-01-12T07:24:47.803Z,5.60
2019-01-12T07:25:47.792Z,4.70
2019-01-12T07:26:47.780Z,5.40
2019-01-12T07:27:47.792Z,5.30
2019-01-12T07:28:47.758Z,5.00
2019-01-12T07:29:47.746Z,5.10
2019-01-12T07:30:47.735Z,5.00
2019-01-12T07:31:47.725Z,5.20
2019-01-12T07:32:47.741Z,5.70
2019-01-12T07:33:47.702Z,6.00
2019-01-12T07:34:47.692Z,6.40
2019-01-12T07:35:47.681Z,6.20
2019-01-12T07:36:47.668Z,6.50
2019-01-12T07:37:47.680Z,6.70
2019-01-12T07:38:47.647Z,6.40
2019-01-12T07:39:47.634Z,6.00
2019-01-12T07:40:47.624Z,6.40
2019-01-12T07:41:47.611Z,6.00
2019-01-12T07:42:47.606Z,7.10
2019-01-12T07:43:47.613Z,6.40
2019-01-12T07:44:47.580Z,6.70
2019-01-12T07:45:47.570Z,7.10
2019-01-12T07:46:47.556Z,7.40
2019-01-12T07:47:47.546Z,6.90
2019-01-12T07:48:47.557Z,7.60
2019-01-12T07:49:47.524Z,7.00
2019-01-12T07:50:47.510Z,7.50
2019-01-12T07:51:47.500Z,7.50
2019-01-12T07:52:47.492Z,6.80
2019-01-12T07:53:47.501Z,7.50
2019-01-12T07:54:47.947Z,7.50
2019-01-12T07:55:47.455Z,7.10
2019-01-12T07:56:47.442Z,7.90
2019-01-12T07:57:47.434Z,7.30
2019-01-12T07:58:47.445Z,8.10
2019-01-12T07:59:47.411Z,7.40
2019-01-12T08:00:47.399Z,8.10
2019-01-12T08:01:47.387Z,8.10
2019-01-12T08:02:47.378Z,8.20
2019-01-12T08:03:47.388Z,8.10
2019-01-12T08:04:47.356Z,8.80
2019-01-12T08:05:47.343Z,9.30
2019-01-12T08:06:47.331Z,8.80
2019-01-12T08:07:47.322Z,8.60
2019-01-12T08:08:47.333Z,9.40
2019-01-12T08:09:47.299Z,9.50
2019-01-12T08:10:47.288Z,9.30
2019-01-12T08:11:47.278Z,9.60
2019-01-12T08:12:47.267Z,10.10
2019-01-12T08:13:47.277Z,10.10
2019-01-12T08:14:47.242Z,10.60
2019-01-12T08:15:47.233Z,10.30
2019-01-12T08:16:47.222Z,10.30
2019-01-12T08:17:47.208Z,10.00
2019-01-12T08:18:47.222Z,10.40
2019-01-12T08:19:47.185Z,10.60
2019-01-12T08:20:47.176Z,10.70
2019-01-12T08:21:47.164Z,10.70
2019-01-12T08:22:47.153Z,12.00
2019-01-12T08:23:47.166Z,11.10
2019-01-12T08:24:47.130Z,11.50
2019-01-12T08:25:47.120Z,12.70
2019-01-12T08:26:47.108Z,12.10
2019-01-12T08:27:47.096Z,12.90
2019-01-12T08:28:47.111Z,12.90
2019-01-12T08:29:47.075Z,13.30
2019-01-12T08:30:47.064Z,13.10
2019-01-12T08:31:47.055Z,12.90
2019-01-12T08:32:47.040Z,13.40
2019-01-12T08:33:47.053Z,13.00
2019-01-12T08:34:47.020Z,13.50
2019-01-12T08:35:47.006Z,13.30
2019-01-12T08:36:46.995Z,13.90
2019-01-12T08:37:46.985Z,13.40
2019-01-12T08:38:46.999Z,13.80
2019-01-12T08:39:46.961Z,14.40
2019-01-12T08:40:46.955Z,14.10
2019-01-12T08:41:46.939Z,14.70
2019-01-12T08:42:46.928Z,13.80
2019-01-12T08:43:46.921Z,14.20
2019-01-12T08:44:46.930Z,15.60
2019-01-12T08:45:46.895Z,15.20
2019-01-12T08:46:46.884Z,14.40
2019-01-12T08:47:46.876Z,15.70
2019-01-12T08:48:46.863Z,15.20
2019-01-12T08:49:46.874Z,15.40
2019-01-12T08:50:46.839Z,15.60
2019-01-12T08:51:46.828Z,15.60
2019-01-12T08:52:46.820Z,15.90
2019-01-12T08:53:46.805Z,15.90
2019-01-12T08:54:46.824Z,16.50
2019-01-12T08:55:46.787Z,14.80
2019-01-12T08:56:46.776Z,14.30
2019-01-12T08:57:46.761Z,15.30
2019-01-12T08:58:46.749Z,13.90
2019-01-12T08:59:46.761Z,13.00
2019-01-12T09:00:46.727Z,13.50
2019-01-12T09:01:46.717Z,14.10
2019-01-12T09:02:46.709Z,13.20
2019-01-12T09:03:46.692Z,13.10
2019-01-12T09:04:46.705Z,12.60
2019-01-12T09:05:46.672Z,11.70
2019-01-12T09:06:46.663Z,11.80
2019-01-12T09:07:46.655Z,11.90
2019-01-12T09:08:46.638Z,12.30
2019-01-12T09:09:46.647Z,11.50
2019-01-12T09:10:46.616Z,10.80
2019-01-12T09:11:46.602Z,12.50
2019-01-12T09:12:46.595Z,12.40
2019-01-12T09:13:46.581Z,12.10
2019-01-12T09:14:46.591Z,11.80
2019-01-12T09:15:46.556Z,11.70
2019-01-12T09:16:46.546Z,12.70
2019-01-12T09:17:46.539Z,11.70
2019-01-12T09:18:46.522Z,12.90
2019-01-12T09:19:46.535Z,12.40
2019-01-12T09:20:46.500Z,12.90
2019-01-12T09:21:46.489Z,12.60
2019-01-12T09:22:46.481Z,13.30
2019-01-12T09:23:46.471Z,13.70
2019-01-12T09:24:46.479Z,12.40
2019-01-12T09:25:46.445Z,13.10
2019-01-12T09:26:46.433Z,13.90
2019-01-12T09:27:46.426Z,13.80
2019-01-12T09:28:46.414Z,13.20
2019-01-12T09:29:46.423Z,13.70
2019-01-12T09:30:48.636Z,14.20
2019-01-12T09:31:46.379Z,14.80
2019-01-12T09:32:46.369Z,14.30
2019-01-12T09:33:46.355Z,14.30
2019-01-12T09:34:46.345Z,14.00
2019-01-12T09:35:46.368Z,14.40
2019-01-12T09:36:46.321Z,13.70
2019-01-12T09:37:46.309Z,14.60
2019-01-12T09:38:46.301Z,13.40
2019-01-12T09:39:46.291Z,13.70
2019-01-12T09:40:46.302Z,13.90
2019-01-12T09:41:46.273Z,14.00
2019-01-12T09:42:46.254Z,14.00
2019-01-12T09:43:46.244Z,12.40
2019-01-12T09:44:46.233Z,12.10
2019-01-12T09:45:46.245Z,11.60
2019-01-12T09:46:46.210Z,11.70
2019-01-12T09:47:46.200Z,12.40
2019-01-12T09:48:46.187Z,12.30
2019-01-12T09:49:46.176Z,11.80
2019-01-12T09:50:46.189Z,10.70
2019-01-12T09:51:46.153Z,11.80
2019-01-12T09:52:46.143Z,11.30
2019-01-12T09:53:46.131Z,12.10
2019-01-12T09:54:46.120Z,9.80
2019-01-12T09:55:46.132Z,10.70
2019-01-12T09:56:51.677Z,11.00
2019-01-12T09:57:47.087Z,11.10
2019-01-12T09:58:46.075Z,10.00
2019-01-12T09:59:46.065Z,10.60
2019-01-12T10:00:46.077Z,10.70
2019-01-12T10:01:46.041Z,10.20
2019-01-12T10:02:46.029Z,10.20
2019-01-12T10:03:46.018Z,10.50
2019-01-12T10:04:46.009Z,9.20
2019-01-12T10:05:46.022Z,9.50
2019-01-12T10:06:45.985Z,9.90
2019-01-12T10:07:45.974Z,9.90
2019-01-12T10:08:45.964Z,9.10
2019-01-12T10:09:45.952Z,10.70
2019-01-12T10:10:45.964Z,9.80
2019-01-12T10:11:45.928Z,9.70
2019-01-12T10:12:45.918Z,9.10
2019-01-12T10:13:45.907Z,9.50
2019-01-12T10:14:45.896Z,9.70
2019-01-12T10:15:45.909Z,9.20
2019-01-12T10:16:45.872Z,8.90
2019-01-12T10:17:45.863Z,9.10
2019-01-12T10:18:45.854Z,9.60
2019-01-12T10:19:45.840Z,8.20
2019-01-12T10:20:45.868Z,9.00
2019-01-12T10:21:45.819Z,9.20
2019-01-12T10:22:45.808Z,9.00
2019-01-12T10:23:45.794Z,9.20
2019-01-12T10:24:45.851Z,9.70
2019-01-12T10:25:45.796Z,8.80
2019-01-12T10:26:45.761Z,8.70
2019-01-12T10:27:45.750Z,8.30
2019-01-12T10:28:45.737Z,8.80
2019-01-12T10:29:45.727Z,8.50
2019-01-12T10:30:45.717Z,9.20
2019-01-12T10:31:45.727Z,9.20
2019-01-12T10:32:45.692Z,9.40
2019-01-12T10:33:45.683Z,8.40
2019-01-12T10:34:45.670Z,8.70
2019-01-12T10:35:45.661Z,8.50
2019-01-12T10:36:45.671Z,8.50
2019-01-12T10:37:45.639Z,8.70
2019-01-12T10:38:45.626Z,8.20
2019-01-12T10:39:45.615Z,8.80
2019-01-12T10:40:45.603Z,8.80
2019-01-12T10:41:45.615Z,8.30
2019-01-12T10:42:45.581Z,8.20
2019-01-12T10:43:45.569Z,8.30
2019-01-12T10:44:45.558Z,8.40
2019-01-12T10:45:45.548Z,8.50
2019-01-12T10:46:45.560Z,8.70
2019-01-12T10:47:45.530Z,8.80
2019-01-12T10:48:45.515Z,7.70
2019-01-12T10:49:45.623Z,9.50
2019-01-12T10:50:45.493Z,8.70
2019-01-12T10:51:45.502Z,8.50
2019-01-12T10:52:45.468Z,7.60
2019-01-12T10:53:45.455Z,8.30
2019-01-12T10:54:45.481Z,7.80
2019-01-12T10:55:45.452Z,8.00
2019-01-12T10:56:45.447Z,7.80
2019-01-12T10:57:45.411Z,8.00
2019-01-12T10:58:45.400Z,7.90
2019-01-12T10:59:45.389Z,7.80
2019-01-12T11:00:45.380Z,8.30
2019-01-12T11:01:45.391Z,7.90
2019-01-12T11:02:45.358Z,8.30
2019-01-12T11:03:45.346Z,8.20
2019-01-12T11:04:45.331Z,7.50
2019-01-12T11:05:45.321Z,7.80
2019-01-12T11:06:45.337Z,7.90
2019-01-12T11:07:45.299Z,7.10
2019-01-12T11:08:45.288Z,7.50
2019-01-12T11:09:45.275Z,7.90
2019-01-12T11:10:45.265Z,8.00
2019-01-12T11:11:45.258Z,8.30
2019-01-12T11:12:45.402Z,8.40
2019-01-12T11:13:45.231Z,7.60
2019-01-12T11:14:45.221Z,8.40
2019-01-12T11:15:45.211Z,8.50
2019-01-12T11:16:45.208Z,8.10
2019-01-12T11:17:45.319Z,8.30
2019-01-12T11:18:45.177Z,8.20
2019-01-12T11:19:45.167Z,8.60
2019-01-12T11:20:45.155Z,8.60
2019-01-12T11:21:45.147Z,8.40
2019-01-12T11:22:45.157Z,8.40
2019-01-12T11:23:45.119Z,8.20
2019-01-12T11:24:45.114Z,8.40
2019-01-12T11:25:45.098Z,8.30
2019-01-12T11:26:45.091Z,8.10
2019-01-12T11:27:45.120Z,8.10
2019-01-12T11:28:45.064Z,8.10
2019-01-12T11:29:45.054Z,8.60
2019-01-12T11:30:45.042Z,8.50
2019-01-12T11:31:45.034Z,7.90
2019-01-12T11:32:45.042Z,8.60
2019-01-12T11:33:45.009Z,8.90
2019-01-12T11:34:44.998Z,8.20
2019-01-12T11:35:44.985Z,8.50
2019-01-12T11:36:44.974Z,8.40
2019-01-12T11:37:44.986Z,7.70
2019-01-12T11:38:44.953Z,8.20
2019-01-12T11:39:44.946Z,8.40
2019-01-12T11:40:44.933Z,8.20
2019-01-12T11:41:44.919Z,7.90
2019-01-12T11:42:44.999Z,8.80
2019-01-12T11:43:44.896Z,8.20
2019-01-12T11:44:44.885Z,8.80
2019-01-12T11:45:44.952Z,8.60
2019-01-12T11:46:44.863Z,9.40
2019-01-12T11:47:44.875Z,9.80
2019-01-12T11:48:44.842Z,9.30
2019-01-12T11:49:44.829Z,8.80
2019-01-12T11:50:44.817Z,8.80
2019-01-12T11:51:44.806Z,8.30
2019-01-12T11:52:44.820Z,9.00
2019-01-12T11:53:44.784Z,8.80
2019-01-12T11:54:44.773Z,8.30
2019-01-12T11:55:44.761Z,8.90
2019-01-12T11:56:44.750Z,8.30
2019-01-12T11:57:44.767Z,8.40
2019-01-12T11:58:44.727Z,8.40
2019-01-12T11:59:44.717Z,9.20
2019-01-12T12:00:44.708Z,8.70
2019-01-12T12:01:44.695Z,8.50
2019-01-12T12:02:44.706Z,8.70
2019-01-12T12:03:44.672Z,8.90
2019-01-12T12:04:44.662Z,9.20
2019-01-12T12:05:44.651Z,8.50
2019-01-12T12:06:44.638Z,9.10
2019-01-12T12:07:44.650Z,8.80
2019-01-12T12:08:44.616Z,9.00
2019-01-12T12:09:44.604Z,8.50
2019-01-12T12:10:44.594Z,9.00
2019-01-12T12:11:44.582Z,8.10
2019-01-12T12:12:44.573Z,9.10
2019-01-12T12:13:44.584Z,8.90
2019-01-12T12:14:44.549Z,8.70
2019-01-12T12:15:44.538Z,9.00
2019-01-12T12:16:44.539Z,7.90
2019-01-12T12:17:44.520Z,7.80
2019-01-12T12:18:44.530Z,7.80
2019-01-12T12:19:44.494Z,8.50
2019-01-12T12:20:44.486Z,9.10
2019-01-12T12:21:44.471Z,7.70
2019-01-12T12:22:44.459Z,8.60
2019-01-12T12:23:44.472Z,7.90
2019-01-12T12:24:44.438Z,7.70
2019-01-12T12:25:44.425Z,8.00
2019-01-12T12:26:44.413Z,7.10
2019-01-12T12:27:44.402Z,7.50
2019-01-12T12:28:44.415Z,7.80
2019-01-12T12:29:44.380Z,7.40
2019-01-12T12:30:44.369Z,7.50
2019-01-12T12:31:44.357Z,7.70
2019-01-12T12:32:44.346Z,8.10
2019-01-12T12:33:44.360Z,7.90
2019-01-12T12:34:44.324Z,8.00
2019-01-12T12:35:44.313Z,7.60
2019-01-12T12:36:44.302Z,7.60
2019-01-12T12:37:44.289Z,7.30
2019-01-12T12:38:44.307Z,7.30
2019-01-12T12:39:44.271Z,7.20
2019-01-12T12:40:44.266Z,7.30
2019-01-12T12:41:44.245Z,7.30
2019-01-12T12:42:44.233Z,7.10
2019-01-12T12:43:44.248Z,6.50
2019-01-12T12:44:44.212Z,6.40
2019-01-12T12:45:44.199Z,6.70
2019-01-12T12:46:44.193Z,7.00
2019-01-12T12:47:44.178Z,7.10
2019-01-12T12:48:44.190Z,7.20
2019-01-12T12:49:44.154Z,6.60
2019-01-12T12:50:44.146Z,7.10
2019-01-12T12:51:44.133Z,6.70
2019-01-12T12:52:44.125Z,7.00
2019-01-12T12:53:44.132Z,6.80
2019-01-12T12:54:44.098Z,6.40
2019-01-12T12:55:44.089Z,6.50
2019-01-12T12:56:44.078Z,6.90
2019-01-12T12:57:44.065Z,6.30
2019-01-12T12:58:44.077Z,6.70
2019-01-12T12:59:44.043Z,7.00
2019-01-12T13:00:44.031Z,5.90
2019-01-12T13:01:44.020Z,6.50
2019-01-12T13:02:44.008Z,7.00
2019-01-12T13:03:44.023Z,6.60
2019-01-12T13:04:43.986Z,6.70
2019-01-12T13:05:43.974Z,6.50
2019-01-12T13:06:43.965Z,6.90